Time;durP1;ratioP1;P1;durP2;ratioP2;P2;SDS_P1;SDS_P2;PMS_P1;PMS_P2;Temp;Humidity;BMP_temperature;BMP_pressure;BME280_temperature;BME280_humidity;BME280_pressure;Samples;Min_cycle;Max_cycle;Signal;HPM_P1;HPM_P2
2023/05/11 00:01:28;;;;;;;10.05;3.72;;;11.80;61.90;;;;;;4789959;30;20487;-87
2023/05/11 00:03:55;;;;;;;7.90;3.20;;;11.80;61.70;;;;;;4789921;30;20534;-87
2023/05/11 00:06:23;;;;;;;8.77;3.35;;;11.90;61.60;;;;;;4789874;30;20051;-87
2023/05/11 00:08:50;;;;;;;8.68;2.88;;;11.90;61.70;;;;;;4790028;29;20112;-87
2023/05/11 00:11:18;;;;;;;7.25;2.88;;;11.90;61.60;;;;;;4774828;30;20063;-87
2023/05/11 00:13:45;;;;;;;7.97;2.90;;;11.90;61.40;;;;;;4789728;30;20510;-87
2023/05/11 00:16:13;;;;;;;8.20;2.67;;;11.80;61.20;;;;;;4789728;30;20457;-87
2023/05/11 00:18:40;;;;;;;7.07;2.60;;;11.90;61.10;;;;;;4789610;30;20150;-87
2023/05/11 00:21:07;;;;;;;8.77;2.65;;;12.00;61.40;;;;;;4789583;30;20058;-87
2023/05/11 00:23:34;;;;;;;8.45;2.97;;;12.00;61.20;;;;;;4789557;30;20541;-87
2023/05/11 00:26:01;;;;;;;7.53;2.85;;;12.00;61.20;;;;;;4789659;30;20051;-87
2023/05/11 00:28:28;;;;;;;6.87;2.80;;;11.90;61.20;;;;;;4789589;30;20136;-87
2023/05/11 00:30:56;;;;;;;8.02;2.42;;;11.80;61.80;;;;;;4789163;30;20043;-87
2023/05/11 00:33:24;;;;;;;6.93;2.53;;;11.80;61.40;;;;;;4789343;30;20051;-87
2023/05/11 00:35:51;;;;;;;7.80;2.97;;;11.70;61.50;;;;;;4789500;30;20075;-86
2023/05/11 00:38:18;;;;;;;7.30;2.67;;;11.70;61.80;;;;;;4789511;30;20553;-87
2023/05/11 00:40:45;;;;;;;6.17;2.10;;;11.70;61.90;;;;;;4789180;30;20048;-87
2023/05/11 00:43:12;;;;;;;7.03;2.67;;;11.70;61.80;;;;;;4789180;30;20108;-87
2023/05/11 00:45:40;;;;;;;7.53;2.70;;;11.60;62.20;;;;;;4789319;30;20067;-87
2023/05/11 00:48:26;;;;;;;7.45;2.65;;;11.60;61.70;;;;;;4789764;30;20074;-87
2023/05/11 00:50:53;;;;;;;7.30;2.63;;;11.60;62.10;;;;;;4789177;30;20569;-87
2023/05/11 00:53:20;;;;;;;7.53;2.20;;;11.60;62.20;;;;;;4788961;30;20055;-87
2023/05/11 00:55:47;;;;;;;6.38;2.60;;;11.50;62.20;;;;;;4789083;29;20056;-86
2023/05/11 00:58:15;;;;;;;7.70;2.85;;;11.50;62.50;;;;;;4788836;29;20514;-87
2023/05/11 01:00:43;;;;;;;8.48;2.65;;;11.50;62.40;;;;;;4789002;30;20047;-87
2023/05/11 01:03:12;;;;;;;7.88;2.60;;;11.40;62.70;;;;;;4788728;29;20410;-87
2023/05/11 01:05:45;;;;;;;6.90;2.60;;;11.40;62.70;;;;;;4779296;29;20051;-87
2023/05/11 01:08:20;;;;;;;7.43;2.55;;;11.40;62.90;;;;;;4789058;29;20516;-87
2023/05/11 01:11:02;;;;;;;8.70;2.72;;;11.30;63.00;;;;;;4788871;30;20047;-87
2023/05/11 01:13:38;;;;;;;7.35;2.70;;;11.30;63.20;;;;;;4788654;30;20062;-87
2023/05/11 01:16:17;;;;;;;9.82;2.92;;;11.30;63.20;;;;;;4788714;30;20059;-87
2023/05/11 01:19:00;;;;;;;6.67;2.83;;;11.30;63.30;;;;;;4788619;30;20070;-87
2023/05/11 01:21:34;;;;;;;7.35;2.80;;;11.30;63.20;;;;;;4788616;30;20048;-86
2023/05/11 01:24:01;;;;;;;6.43;2.67;;;11.30;63.20;;;;;;4788579;30;20051;-87
2023/05/11 01:27:06;;;;;;;7.93;2.90;;;11.30;63.20;;;;;;4788424;30;20090;-87
2023/05/11 01:29:51;;;;;;;7.55;2.63;;;11.40;63.10;;;;;;4788553;30;20051;-87
2023/05/11 01:32:29;;;;;;;6.60;2.53;;;11.40;63.00;;;;;;4788497;30;20078;-87
2023/05/11 01:35:06;;;;;;;7.40;2.58;;;11.40;62.80;;;;;;4788460;30;20051;-87
2023/05/11 01:37:35;;;;;;;6.38;2.38;;;11.40;62.60;;;;;;4788587;30;20047;-87
2023/05/11 01:40:07;;;;;;;6.78;2.28;;;11.40;63.00;;;;;;4788361;30;20079;-87
2023/05/11 01:42:40;;;;;;;7.20;2.22;;;11.50;62.90;;;;;;4788254;30;20048;-88
2023/05/11 01:45:09;;;;;;;7.47;2.40;;;11.40;63.10;;;;;;4788445;30;20055;-87
2023/05/11 01:47:39;;;;;;;7.28;2.47;;;11.40;63.20;;;;;;4788319;30;20112;-87
2023/05/11 01:50:07;;;;;;;7.90;2.90;;;11.30;63.40;;;;;;4788081;30;20065;-87
2023/05/11 01:52:38;;;;;;;8.85;3.15;;;11.20;63.60;;;;;;4787971;30;20437;-87
2023/05/11 01:55:07;;;;;;;7.95;3.00;;;11.20;64.00;;;;;;4787888;30;20395;-86
2023/05/11 01:57:37;;;;;;;7.90;2.80;;;11.20;64.00;;;;;;4787977;30;20538;-87
2023/05/11 02:00:07;;;;;;;6.85;2.70;;;11.10;64.10;;;;;;4788054;30;20071;-87
2023/05/11 02:02:42;;;;;;;7.00;2.78;;;11.10;64.20;;;;;;4788078;30;20130;-87
2023/05/11 02:05:10;;;;;;;10.30;2.90;;;11.10;64.20;;;;;;4787847;30;20078;-87
2023/05/11 02:07:43;;;;;;;9.48;2.50;;;11.10;63.80;;;;;;4787732;30;20047;-87
2023/05/11 02:10:12;;;;;;;6.67;2.20;;;11.00;63.70;;;;;;4787790;29;20065;-87
2023/05/11 02:12:41;;;;;;;7.10;2.75;;;11.00;64.00;;;;;;4780190;30;20051;-87
2023/05/11 02:15:09;;;;;;;6.28;2.20;;;11.00;64.10;;;;;;4788110;30;20090;-87
2023/05/11 02:17:39;;;;;;;6.03;1.92;;;11.00;63.90;;;;;;4787337;29;20063;-87
2023/05/11 02:20:08;;;;;;;7.35;2.50;;;11.00;64.00;;;;;;4787922;30;20443;-87
2023/05/11 02:22:37;;;;;;;6.83;2.33;;;11.00;64.00;;;;;;4787677;30;20449;-87
2023/05/11 02:25:06;;;;;;;8.35;2.25;;;11.00;64.10;;;;;;4787781;30;20502;-87
2023/05/11 02:27:34;;;;;;;6.43;2.88;;;11.00;64.30;;;;;;4787587;30;20138;-87
2023/05/11 02:30:07;;;;;;;5.78;2.15;;;10.90;64.20;;;;;;4787751;30;20051;-87
2023/05/11 02:32:41;;;;;;;6.07;2.10;;;10.80;64.40;;;;;;4787555;30;20062;-87
2023/05/11 02:35:19;;;;;;;5.80;2.30;;;10.90;64.20;;;;;;4787586;30;20063;-87
2023/05/11 02:37:48;;;;;;;6.00;2.00;;;10.90;64.00;;;;;;4787302;30;20043;-86
2023/05/11 02:40:18;;;;;;;7.35;2.53;;;11.00;63.70;;;;;;4787476;30;20134;-87
2023/05/11 02:42:52;;;;;;;6.32;2.17;;;11.00;63.70;;;;;;4787476;29;20502;-87
2023/05/11 02:45:20;;;;;;;7.88;2.40;;;11.00;63.50;;;;;;4772762;30;20105;-87
2023/05/11 02:47:53;;;;;;;5.93;1.83;;;11.00;63.40;;;;;;4787400;30;20051;-86
2023/05/11 02:50:27;;;;;;;6.32;2.13;;;11.00;63.70;;;;;;4787399;29;20490;-87
2023/05/11 02:52:56;;;;;;;7.40;1.98;;;10.90;63.90;;;;;;4787375;30;20150;-89
2023/05/11 02:55:24;;;;;;;6.55;2.28;;;10.90;64.00;;;;;;4779916;30;20048;-87
2023/05/11 02:57:51;;;;;;;7.10;2.17;;;10.80;63.90;;;;;;4787080;30;20043;-86
2023/05/11 03:00:19;;;;;;;6.67;2.27;;;10.80;64.00;;;;;;4787170;30;20507;-86
2023/05/11 03:02:47;;;;;;;6.95;2.30;;;10.90;64.10;;;;;;4776765;30;20055;-87
2023/05/11 03:05:19;;;;;;;7.68;1.98;;;10.90;64.10;;;;;;4787226;30;20054;-87
2023/05/11 03:07:46;;;;;;;5.55;2.10;;;10.90;63.80;;;;;;4787109;29;20063;-86
2023/05/11 03:10:13;;;;;;;6.97;2.55;;;10.80;63.70;;;;;;4769380;30;20052;-86
2023/05/11 03:12:43;;;;;;;5.70;2.10;;;10.90;64.10;;;;;;4769407;30;20436;-87
2023/05/11 03:15:11;;;;;;;6.30;2.30;;;10.90;64.00;;;;;;4769453;30;20048;-87
2023/05/11 03:17:42;;;;;;;6.50;2.50;;;10.90;64.10;;;;;;4769109;30;20056;-87
2023/05/11 03:20:14;;;;;;;7.20;2.47;;;10.90;63.80;;;;;;4769374;30;20048;-87
2023/05/11 03:22:43;;;;;;;6.70;2.40;;;11.00;63.90;;;;;;4769185;30;20048;-89
2023/05/11 03:25:11;;;;;;;8.13;2.20;;;11.00;63.90;;;;;;4769149;30;20044;-90
2023/05/11 03:27:40;;;;;;;7.35;2.22;;;10.90;63.40;;;;;;4768707;30;20497;-90
2023/05/11 03:30:10;;;;;;;6.32;2.50;;;11.00;63.30;;;;;;4756684;30;20139;-89
2023/05/11 03:32:41;;;;;;;6.38;2.45;;;11.00;63.60;;;;;;4771850;30;20056;-90
2023/05/11 03:35:09;;;;;;;7.82;2.30;;;10.90;63.80;;;;;;4772514;30;20130;-90
2023/05/11 03:37:37;;;;;;;6.23;1.93;;;10.80;63.60;;;;;;4772342;30;20050;-90
2023/05/11 03:40:07;;;;;;;6.40;2.28;;;10.80;64.20;;;;;;4772218;30;20109;-89
2023/05/11 03:42:45;;;;;;;8.68;2.20;;;10.80;64.10;;;;;;4772238;30;20044;-89
2023/05/11 03:45:17;;;;;;;6.55;2.30;;;10.80;64.00;;;;;;4772003;30;20040;-89
2023/05/11 03:47:46;;;;;;;6.50;2.25;;;10.80;64.10;;;;;;4774331;30;20058;-88
2023/05/11 03:50:15;;;;;;;7.87;2.37;;;10.70;64.40;;;;;;4772821;30;20044;-89
2023/05/11 03:52:43;;;;;;;6.63;2.35;;;10.70;64.30;;;;;;4775910;30;20082;-88
2023/05/11 03:55:10;;;;;;;6.30;2.50;;;10.80;64.40;;;;;;4771897;30;20142;-88
2023/05/11 03:57:38;;;;;;;7.93;2.45;;;10.80;64.50;;;;;;4771912;30;20075;-88
2023/05/11 04:00:07;;;;;;;6.60;2.72;;;10.80;64.20;;;;;;4771616;30;20496;-88
2023/05/11 04:02:41;;;;;;;5.40;2.30;;;10.80;64.00;;;;;;4772097;30;20054;-88
2023/05/11 04:05:09;;;;;;;5.97;1.98;;;10.80;64.80;;;;;;4771931;30;20138;-88
2023/05/11 04:07:37;;;;;;;6.63;2.30;;;10.90;64.70;;;;;;4772055;30;20415;-88
2023/05/11 04:10:05;;;;;;;7.78;2.47;;;10.90;64.60;;;;;;4773623;29;20090;-88
2023/05/11 04:12:32;;;;;;;10.07;2.40;;;11.00;64.10;;;;;;4771811;30;20389;-88
2023/05/11 04:15:00;;;;;;;5.90;1.97;;;11.00;64.00;;;;;;4771653;30;20052;-88
2023/05/11 04:17:27;;;;;;;8.82;2.20;;;11.00;63.50;;;;;;4775147;29;20503;-88
2023/05/11 04:19:54;;;;;;;6.75;1.70;;;11.00;63.40;;;;;;4771665;30;20047;-88
2023/05/11 04:22:22;;;;;;;5.93;1.88;;;11.00;63.50;;;;;;4771652;30;20048;-88
2023/05/11 04:24:49;;;;;;;6.78;2.13;;;11.00;63.50;;;;;;4771587;30;20074;-88
2023/05/11 04:27:16;;;;;;;6.50;2.07;;;11.00;63.30;;;;;;4771835;30;20444;-88
2023/05/11 04:29:43;;;;;;;5.25;1.90;;;11.00;63.80;;;;;;4771418;30;20105;-88
2023/05/11 04:32:10;;;;;;;8.65;1.95;;;11.00;63.40;;;;;;4771825;30;20055;-88
2023/05/11 04:34:38;;;;;;;7.20;1.77;;;11.00;63.50;;;;;;4771636;30;20132;-88
2023/05/11 04:37:06;;;;;;;5.40;1.90;;;11.10;63.20;;;;;;4771379;30;20060;-88
2023/05/11 04:39:35;;;;;;;4.67;1.57;;;11.20;63.10;;;;;;4771579;30;20097;-88
2023/05/11 04:42:02;;;;;;;6.10;1.90;;;11.20;62.80;;;;;;4771270;30;20105;-88
2023/05/11 04:44:30;;;;;;;5.28;1.90;;;11.20;62.80;;;;;;4759783;30;20101;-87
2023/05/11 04:46:57;;;;;;;5.68;1.92;;;11.30;62.80;;;;;;4771160;30;20522;-88
2023/05/11 04:49:24;;;;;;;6.18;1.60;;;11.30;62.50;;;;;;4771246;30;20052;-88
2023/05/11 04:51:51;;;;;;;4.83;1.50;;;11.40;62.40;;;;;;4771784;30;20120;-88
2023/05/11 04:54:19;;;;;;;6.35;1.75;;;11.60;62.40;;;;;;4776497;30;20121;-89
2023/05/11 04:56:46;;;;;;;6.03;2.33;;;11.80;61.90;;;;;;4771439;30;20040;-88
2023/05/11 04:59:13;;;;;;;21.83;2.42;;;11.90;61.50;;;;;;4771304;30;20047;-88
2023/05/11 05:01:40;;;;;;;5.25;2.08;;;12.00;61.40;;;;;;4771352;30;20556;-89
2023/05/11 05:04:07;;;;;;;6.93;2.20;;;12.20;61.20;;;;;;4771090;30;20052;-88
2023/05/11 05:06:37;;;;;;;7.32;1.77;;;12.30;60.60;;;;;;4771063;30;20051;-88
2023/05/11 05:09:04;;;;;;;6.45;1.83;;;12.30;60.20;;;;;;4777498;29;20063;-88
2023/05/11 05:11:31;;;;;;;6.07;1.80;;;12.30;60.30;;;;;;4785968;30;20101;-88
2023/05/11 05:13:58;;;;;;;7.22;2.17;;;12.30;60.30;;;;;;4785872;30;20048;-88
2023/05/11 05:16:25;;;;;;;6.80;1.90;;;12.20;60.40;;;;;;4785666;30;20087;-88
2023/05/11 05:18:52;;;;;;;9.75;2.38;;;12.30;60.40;;;;;;4785935;30;20138;-88
2023/05/11 05:21:19;;;;;;;8.05;1.90;;;12.50;60.90;;;;;;4785638;30;20071;-88
2023/05/11 05:23:48;;;;;;;5.97;1.95;;;12.80;58.60;;;;;;4784172;29;20563;-88
2023/05/11 05:26:15;;;;;;;6.60;2.00;;;13.00;58.40;;;;;;4785578;30;20131;-89
2023/05/11 05:28:43;;;;;;;6.87;2.07;;;13.00;59.20;;;;;;4785472;30;20105;-89
2023/05/11 05:31:10;;;;;;;5.72;1.85;;;13.00;58.60;;;;;;4785730;30;20055;-89
2023/05/11 05:33:37;;;;;;;5.90;1.77;;;13.00;58.30;;;;;;4785500;30;20511;-89
2023/05/11 05:36:04;;;;;;;6.80;2.17;;;13.00;58.80;;;;;;4774432;30;20055;-88
2023/05/11 05:38:31;;;;;;;9.20;2.80;;;13.00;58.40;;;;;;4784914;30;20454;-88
2023/05/11 05:40:59;;;;;;;10.00;2.77;;;13.10;58.10;;;;;;4785322;30;20048;-88
2023/05/11 05:43:29;;;;;;;6.97;2.47;;;13.20;57.70;;;;;;4785337;30;20170;-88
2023/05/11 05:45:56;;;;;;;6.20;2.03;;;13.40;58.30;;;;;;4785416;29;20071;-88
2023/05/11 05:48:26;;;;;;;5.68;1.75;;;13.50;58.10;;;;;;4785367;30;20590;-88
2023/05/11 05:50:53;;;;;;;7.05;1.85;;;13.70;57.90;;;;;;4785334;30;20082;-88
2023/05/11 05:53:20;;;;;;;6.00;1.73;;;14.00;57.20;;;;;;4784631;29;20132;-89
2023/05/11 05:55:49;;;;;;;6.70;1.70;;;14.20;57.40;;;;;;4784947;30;20048;-88
2023/05/11 05:58:23;;;;;;;5.30;2.17;;;14.50;57.00;;;;;;4784471;30;20104;-89
2023/05/11 06:00:50;;;;;;;6.55;1.88;;;14.80;55.90;;;;;;4785117;30;20056;-89
2023/05/11 06:03:17;;;;;;;6.63;1.90;;;15.00;56.30;;;;;;4785065;30;20408;-89
2023/05/11 06:05:44;;;;;;;4.47;1.43;;;15.30;53.30;;;;;;4784925;29;20044;-89
2023/05/11 06:08:11;;;;;;;6.38;1.40;;;15.50;53.50;;;;;;4785244;30;20538;-89
2023/05/11 06:10:38;;;;;;;4.35;1.60;;;15.60;53.70;;;;;;4784847;29;20044;-89
2023/05/11 06:13:08;;;;;;;5.18;1.50;;;15.80;53.10;;;;;;4784687;30;20064;-89
2023/05/11 06:15:37;;;;;;;4.50;1.30;;;16.00;52.80;;;;;;4785386;29;20051;-89
2023/05/11 06:18:12;;;;;;;5.50;1.63;;;16.00;51.30;;;;;;4784794;30;20078;-89
2023/05/11 06:20:42;;;;;;;4.10;1.20;;;16.10;51.30;;;;;;4785065;29;20171;-89
2023/05/11 06:23:10;;;;;;;4.05;1.25;;;16.20;51.00;;;;;;4784698;30;20047;-89
2023/05/11 06:25:39;;;;;;;4.88;1.20;;;16.40;50.50;;;;;;4784988;30;20043;-89
2023/05/11 06:28:06;;;;;;;5.43;1.25;;;16.50;50.10;;;;;;4784908;30;20055;-89
2023/05/11 06:30:35;;;;;;;4.37;1.20;;;16.60;49.70;;;;;;4784881;29;20478;-89
2023/05/11 06:33:05;;;;;;;4.85;1.30;;;16.80;51.50;;;;;;4784594;30;20051;-89
2023/05/11 06:35:32;;;;;;;3.58;1.17;;;17.00;49.00;;;;;;4785760;30;20525;-89
2023/05/11 06:37:59;;;;;;;3.15;1.05;;;17.00;48.00;;;;;;4782444;30;20051;-89
2023/05/11 06:40:27;;;;;;;4.78;0.95;;;17.10;47.90;;;;;;4784646;30;20121;-89
2023/05/11 06:42:54;;;;;;;5.03;1.10;;;17.20;47.30;;;;;;4769767;30;20143;-89
2023/05/11 06:45:21;;;;;;;3.95;0.98;;;17.40;47.30;;;;;;4771168;29;20388;-89
2023/05/11 06:47:48;;;;;;;3.38;1.10;;;17.50;45.70;;;;;;4784753;30;20565;-89
2023/05/11 06:50:15;;;;;;;3.28;1.00;;;17.50;45.50;;;;;;4784524;30;20393;-89
2023/05/11 06:52:44;;;;;;;4.63;1.10;;;17.60;45.30;;;;;;4784757;29;20058;-89
2023/05/11 06:55:13;;;;;;;4.23;1.00;;;17.80;44.30;;;;;;4784642;30;20115;-89
2023/05/11 06:57:40;;;;;;;3.20;1.00;;;17.90;43.90;;;;;;4777161;30;20079;-89
2023/05/11 07:00:07;;;;;;;3.40;0.90;;;18.00;44.70;;;;;;4784517;29;20047;-89
2023/05/11 07:02:37;;;;;;;3.97;1.05;;;18.20;43.90;;;;;;4784676;30;20052;-89
2023/05/11 07:05:05;;;;;;;3.17;0.88;;;18.30;42.60;;;;;;4787074;29;20139;-89
2023/05/11 07:07:32;;;;;;;4.07;1.03;;;18.30;42.90;;;;;;4788093;30;20576;-89
2023/05/11 07:09:59;;;;;;;2.20;0.80;;;18.40;42.60;;;;;;4788017;29;20393;-89
2023/05/11 07:12:26;;;;;;;2.47;0.80;;;18.50;41.30;;;;;;4788013;30;20052;-89
2023/05/11 07:14:53;;;;;;;3.70;1.00;;;18.40;40.70;;;;;;4788051;30;20466;-90
2023/05/11 07:17:20;;;;;;;4.70;1.17;;;18.40;42.60;;;;;;4787981;30;20058;-89
2023/05/11 07:19:50;;;;;;;2.80;0.90;;;18.60;42.50;;;;;;4787766;29;20048;-89
2023/05/11 07:22:17;;;;;;;3.38;0.98;;;18.80;40.20;;;;;;4787930;30;20077;-89
2023/05/11 07:24:44;;;;;;;3.83;0.90;;;19.10;42.20;;;;;;4787692;30;20138;-90
2023/05/11 07:27:11;;;;;;;4.15;0.80;;;19.00;39.30;;;;;;4787765;30;20491;-89
2023/05/11 07:29:38;;;;;;;2.83;0.90;;;18.90;39.80;;;;;;4787758;29;20457;-90
2023/05/11 07:32:06;;;;;;;3.93;0.70;;;18.90;37.90;;;;;;4787759;30;20071;-90
2023/05/11 07:34:33;;;;;;;7.32;0.93;;;19.00;38.70;;;;;;4787684;30;20458;-90
2023/05/11 07:37:00;;;;;;;2.10;0.60;;;19.00;38.60;;;;;;4787455;30;20140;-89
2023/05/11 07:39:27;;;;;;;2.17;0.60;;;18.90;37.30;;;;;;4787846;30;20130;-89
2023/05/11 07:41:54;;;;;;;4.88;0.82;;;18.70;36.70;;;;;;4787666;30;20060;-89
2023/05/11 07:44:21;;;;;;;14.03;3.53;;;18.70;38.70;;;;;;4787717;30;20112;-90
2023/05/11 07:46:48;;;;;;;7.63;1.75;;;18.70;37.60;;;;;;4787409;30;20044;-89
2023/05/11 07:49:16;;;;;;;33.53;8.68;;;18.60;37.70;;;;;;4787431;29;20384;-89
2023/05/11 07:51:57;;;;;;;9.13;2.30;;;18.50;38.30;;;;;;4787165;30;20065;-89
2023/05/11 07:54:25;;;;;;;4.55;1.10;;;18.30;36.70;;;;;;4787353;30;20051;-89
2023/05/11 07:56:52;;;;;;;4.30;1.10;;;18.30;37.30;;;;;;4787376;30;20051;-90
2023/05/11 07:59:48;;;;;;;3.38;0.80;;;18.30;38.80;;;;;;4772857;30;20063;-89
2023/05/11 08:02:17;;;;;;;2.55;0.77;;;18.30;40.00;;;;;;4786792;29;20109;-89
2023/05/11 08:04:45;;;;;;;2.33;0.80;;;18.40;39.70;;;;;;4787026;30;20105;-89
2023/05/11 08:07:13;;;;;;;4.18;0.80;;;18.60;38.10;;;;;;4786837;30;20055;-89
2023/05/11 08:09:40;;;;;;;3.27;0.70;;;18.80;38.10;;;;;;4786878;29;20084;-89
2023/05/11 08:12:08;;;;;;;4.07;0.80;;;19.00;38.60;;;;;;4786982;30;20048;-89
2023/05/11 08:14:35;;;;;;;3.10;0.80;;;19.00;38.80;;;;;;4787084;29;20105;-89
2023/05/11 08:17:02;;;;;;;1.92;0.60;;;18.80;37.30;;;;;;4785920;29;20142;-89
2023/05/11 08:19:29;;;;;;;4.50;0.90;;;18.60;37.30;;;;;;4786992;30;20113;-89
2023/05/11 08:21:56;;;;;;;2.97;0.90;;;18.80;38.20;;;;;;4787020;30;20068;-89
2023/05/11 08:24:23;;;;;;;3.33;0.82;;;19.00;37.70;;;;;;4786498;29;20146;-89
2023/05/11 08:26:50;;;;;;;3.30;0.70;;;19.00;38.50;;;;;;4786840;30;20495;-90
2023/05/11 08:29:17;;;;;;;4.90;0.73;;;19.10;39.30;;;;;;4786575;30;20055;-89
2023/05/11 08:31:44;;;;;;;2.50;0.90;;;19.10;38.80;;;;;;4786713;30;20414;-89
2023/05/11 08:34:11;;;;;;;2.83;0.90;;;19.20;38.40;;;;;;4786812;30;20542;-89
2023/05/11 08:36:45;;;;;;;2.85;0.70;;;19.30;36.70;;;;;;4786770;29;20052;-89
2023/05/11 08:39:13;;;;;;;6.68;1.10;;;19.20;37.30;;;;;;4786526;29;20407;-89
2023/05/11 08:41:40;;;;;;;4.55;0.98;;;19.00;39.00;;;;;;4786193;29;20043;-89
2023/05/11 08:44:08;;;;;;;3.45;0.90;;;18.80;38.40;;;;;;4786648;30;20048;-89
2023/05/11 08:46:38;;;;;;;2.70;0.87;;;18.90;38.70;;;;;;4771379;30;20052;-89
2023/05/11 08:49:07;;;;;;;3.95;1.00;;;19.20;38.40;;;;;;4786489;30;20074;-89
2023/05/11 08:51:41;;;;;;;5.25;1.13;;;19.50;38.00;;;;;;4786206;30;20052;-90
2023/05/11 08:54:08;;;;;;;3.88;1.00;;;19.60;40.40;;;;;;4786453;30;20109;-89
2023/05/11 08:56:37;;;;;;;5.05;1.10;;;19.70;38.20;;;;;;4786268;29;20403;-89
2023/05/11 08:59:05;;;;;;;3.20;0.90;;;19.80;38.10;;;;;;4771274;30;20071;-89
2023/05/11 09:01:34;;;;;;;4.82;1.30;;;20.00;37.00;;;;;;4786549;29;20067;-90
2023/05/11 09:04:02;;;;;;;4.32;1.45;;;20.00;38.20;;;;;;4786582;29;20044;-89
2023/05/11 09:06:34;;;;;;;5.68;2.45;;;19.90;38.60;;;;;;4785759;29;20048;-89
2023/05/11 09:09:19;;;;;;;5.10;1.70;;;19.90;39.40;;;;;;4785953;29;20193;-89
2023/05/11 09:11:54;;;;;;;4.93;1.80;;;19.90;41.20;;;;;;4785862;30;20051;-89
2023/05/11 09:14:32;;;;;;;7.07;2.05;;;20.10;41.50;;;;;;4785717;30;20052;-89
2023/05/11 09:17:51;;;;;;;5.82;1.80;;;20.10;39.90;;;;;;4785290;30;20067;-89
2023/05/11 09:20:35;;;;;;;5.78;1.70;;;20.10;39.10;;;;;;4778639;30;20050;-89
2023/05/11 09:23:18;;;;;;;5.72;1.35;;;20.10;39.90;;;;;;4785601;29;20039;-89
2023/05/11 09:26:33;;;;;;;5.03;1.20;;;20.10;38.40;;;;;;4785527;30;20119;-89
2023/05/11 09:29:00;;;;;;;4.38;1.60;;;20.00;41.00;;;;;;4785636;30;20138;-89
2023/05/11 09:31:50;;;;;;;5.20;1.75;;;20.10;36.90;;;;;;4786083;30;20055;-89
2023/05/11 09:34:26;;;;;;;4.28;1.33;;;20.00;40.40;;;;;;4785493;30;20084;-89
2023/05/11 09:40:55;;;;;;;4.57;1.60;;;20.00;39.80;;;;;;4785231;30;20059;-89
2023/05/11 09:46:46;;;;;;;7.40;1.70;;;20.40;38.50;;;;;;4785546;29;20071;-89
2023/05/11 09:49:28;;;;;;;5.00;1.33;;;20.30;37.80;;;;;;4785003;30;20056;-89
2023/05/11 09:52:05;;;;;;;6.30;1.95;;;20.10;38.20;;;;;;4785389;30;20079;-89
2023/05/11 09:54:41;;;;;;;5.50;1.90;;;20.00;38.60;;;;;;4785245;29;20058;-89
2023/05/11 09:57:28;;;;;;;4.45;1.50;;;19.80;40.20;;;;;;4785160;30;20531;-89
2023/05/11 09:59:57;;;;;;;4.55;1.60;;;19.80;41.50;;;;;;4785438;30;20062;-94
2023/05/11 10:02:27;;;;;;;4.90;1.63;;;19.80;42.40;;;;;;4785614;30;20109;-94
2023/05/11 10:04:56;;;;;;;4.10;1.58;;;20.00;40.80;;;;;;4785726;30;20083;-94
2023/05/11 10:07:34;;;;;;;4.03;1.60;;;20.00;40.70;;;;;;4785591;30;20142;-94
2023/05/11 10:10:03;;;;;;;7.15;1.63;;;20.10;41.70;;;;;;4785394;29;20056;-94
2023/05/11 10:12:32;;;;;;;4.63;1.70;;;20.00;41.10;;;;;;4785770;30;20052;-94
2023/05/11 10:15:27;;;;;;;6.03;1.77;;;19.80;41.40;;;;;;4785409;30;20075;-95
2023/05/11 10:18:00;;;;;;;4.85;1.52;;;19.80;44.20;;;;;;4785347;30;20061;-94
2023/05/11 10:20:37;;;;;;;4.33;1.50;;;20.00;39.00;;;;;;4785561;30;20056;-94
2023/05/11 10:23:06;;;;;;;7.10;2.20;;;20.20;40.20;;;;;;4770300;30;20138;-94
2023/05/11 10:25:57;;;;;;;5.90;1.48;;;20.40;42.00;;;;;;4783715;30;20048;-94
2023/05/11 10:28:38;;;;;;;4.53;1.60;;;20.50;40.90;;;;;;4785390;30;20048;-93
2023/05/11 10:31:12;;;;;;;6.55;1.50;;;20.30;41.70;;;;;;4784987;30;20090;-93
2023/05/11 10:38:22;;;;;;;5.90;1.70;;;20.30;40.60;;;;;;4771033;30;20626;-94
2023/05/11 10:41:47;;;;;;;6.13;1.85;;;20.50;43.00;;;;;;4785258;30;20146;-94
2023/05/11 10:44:33;;;;;;;7.07;1.70;;;20.60;40.40;;;;;;4742158;30;20069;-94
2023/05/11 10:47:31;;;;;;;4.00;1.58;;;20.80;39.60;;;;;;4785136;29;20511;-94
2023/05/11 10:50:13;;;;;;;5.00;1.70;;;20.90;40.50;;;;;;4785199;30;20061;-94
2023/05/11 10:53:05;;;;;;;5.00;1.75;;;21.10;39.00;;;;;;4784867;30;20051;-94
2023/05/11 10:56:06;;;;;;;7.28;2.13;;;21.30;40.10;;;;;;4784889;30;20535;-93
2023/05/11 10:58:36;;;;;;;4.32;1.42;;;21.50;38.80;;;;;;4784646;30;20112;-94
2023/05/11 11:01:38;;;;;;;6.05;1.90;;;21.50;37.40;;;;;;4784691;30;20078;-94
2023/05/11 11:04:07;;;;;;;5.73;1.90;;;21.50;37.00;;;;;;4785028;30;20051;-95
2023/05/11 11:06:37;;;;;;;4.47;1.65;;;21.50;36.70;;;;;;4785205;30;20087;-93
2023/05/11 11:09:11;;;;;;;7.20;1.58;;;21.40;38.70;;;;;;4784572;30;20087;-93
2023/05/11 11:11:41;;;;;;;5.53;1.65;;;21.50;37.80;;;;;;4784948;30;20095;-93
2023/05/11 11:14:09;;;;;;;7.60;1.90;;;21.30;37.20;;;;;;4784702;30;20512;-94
2023/05/11 11:16:37;;;;;;;5.37;1.53;;;21.20;37.40;;;;;;4784789;30;20535;-94
2023/05/11 11:19:29;;;;;;;4.28;1.55;;;21.30;36.80;;;;;;4784490;30;20074;-94
2023/05/11 11:21:57;;;;;;;5.60;1.73;;;21.40;36.80;;;;;;4784508;30;20120;-94
2023/05/11 11:24:37;;;;;;;4.82;1.30;;;21.50;37.90;;;;;;4784650;30;20055;-93
2023/05/11 11:27:05;;;;;;;4.57;1.30;;;21.50;35.30;;;;;;4784606;30;20079;-93
2023/05/11 11:29:34;;;;;;;5.43;1.33;;;21.40;34.30;;;;;;4784764;30;20059;-94
2023/05/11 11:32:20;;;;;;;4.85;1.38;;;21.20;34.70;;;;;;4784861;30;20052;-94
2023/05/11 11:34:47;;;;;;;8.57;1.60;;;21.10;35.00;;;;;;4784619;30;20055;-94
2023/05/11 11:37:16;;;;;;;3.67;1.23;;;21.20;38.90;;;;;;4784609;30;20504;-94
2023/05/11 11:39:43;;;;;;;4.32;1.50;;;21.40;35.20;;;;;;4784522;30;20047;-93
2023/05/11 11:42:31;;;;;;;5.43;1.40;;;21.20;34.80;;;;;;4784430;30;20052;-94
2023/05/11 11:45:29;;;;;;;5.97;1.48;;;21.10;36.10;;;;;;4784862;30;20052;-93
2023/05/11 11:48:13;;;;;;;5.55;1.80;;;21.50;35.20;;;;;;4772153;30;20112;-94
2023/05/11 11:50:42;;;;;;;7.38;1.88;;;21.60;36.00;;;;;;4784600;29;20077;-94
2023/05/11 11:53:11;;;;;;;7.45;1.58;;;21.60;35.80;;;;;;4787700;30;20577;-94
2023/05/11 11:55:49;;;;;;;7.53;1.63;;;21.60;37.30;;;;;;4787597;30;20082;-94
2023/05/11 11:58:42;;;;;;;5.68;1.70;;;21.70;38.00;;;;;;4787745;30;20537;-93
2023/05/11 12:01:14;;;;;;;6.07;1.90;;;21.70;35.30;;;;;;4787596;30;20079;-93
2023/05/11 12:03:43;;;;;;;6.30;2.05;;;22.00;36.90;;;;;;4787600;30;20060;-94
2023/05/11 12:06:11;;;;;;;6.45;2.13;;;22.00;35.90;;;;;;4787682;29;20056;-93
2023/05/11 12:08:40;;;;;;;11.47;2.00;;;22.10;36.50;;;;;;4787208;29;20511;-93
2023/05/11 12:11:07;;;;;;;8.75;2.22;;;22.10;38.40;;;;;;4787404;30;20400;-94
2023/05/11 12:13:34;;;;;;;6.70;1.98;;;22.30;37.60;;;;;;4787557;30;20051;-94
2023/05/11 12:16:11;;;;;;;5.63;1.75;;;22.50;37.50;;;;;;4787123;30;20142;-94
2023/05/11 12:18:50;;;;;;;5.88;2.30;;;22.60;37.00;;;;;;4787222;30;20060;-94
2023/05/11 12:21:26;;;;;;;6.70;2.20;;;22.50;38.00;;;;;;4787232;30;20079;-94
2023/05/11 12:23:54;;;;;;;7.40;2.20;;;22.40;38.40;;;;;;4787172;30;20622;-94
2023/05/11 12:26:22;;;;;;;6.30;2.08;;;22.20;35.90;;;;;;4787226;30;20418;-94
2023/05/11 12:28:51;;;;;;;7.68;2.10;;;22.10;37.00;;;;;;4786998;30;20048;-93
2023/05/11 12:31:18;;;;;;;8.57;2.35;;;22.20;38.60;;;;;;4787030;30;20495;-93
2023/05/11 12:33:47;;;;;;;6.93;2.47;;;22.30;36.60;;;;;;4786903;30;20059;-90
2023/05/11 12:36:15;;;;;;;8.73;2.38;;;22.30;39.10;;;;;;4786754;29;20130;-90
2023/05/11 12:38:47;;;;;;;7.10;2.40;;;22.50;38.00;;;;;;4786927;30;20105;-90
2023/05/11 12:41:21;;;;;;;8.07;1.92;;;22.40;39.20;;;;;;4786801;30;20063;-92
2023/05/11 12:43:49;;;;;;;7.10;2.58;;;22.10;38.00;;;;;;4787098;30;20083;-92
2023/05/11 12:46:17;;;;;;;7.00;2.00;;;22.00;40.20;;;;;;4786915;30;20093;-91
2023/05/11 12:48:46;;;;;;;6.97;2.10;;;22.10;38.60;;;;;;4786921;30;20078;-94
2023/05/11 12:51:33;;;;;;;7.97;2.63;;;22.30;37.80;;;;;;4786465;30;20052;-91
2023/05/11 12:54:00;;;;;;;7.95;2.63;;;22.40;40.20;;;;;;4787036;30;20151;-92
2023/05/11 12:56:27;;;;;;;5.13;2.20;;;22.50;38.20;;;;;;4788310;30;20443;-91
2023/05/11 12:58:54;;;;;;;6.90;2.23;;;22.60;38.80;;;;;;4787796;30;20063;-91
2023/05/11 13:01:25;;;;;;;7.00;2.50;;;22.60;38.10;;;;;;4787659;30;20052;-91
2023/05/11 13:03:52;;;;;;;6.30;2.25;;;22.50;38.80;;;;;;4787385;30;20081;-91
2023/05/11 13:06:20;;;;;;;5.82;1.88;;;22.60;37.90;;;;;;4787587;30;20048;-91
2023/05/11 13:08:47;;;;;;;5.93;1.80;;;22.60;37.70;;;;;;4787208;30;20060;-91
2023/05/11 13:11:25;;;;;;;7.00;2.10;;;22.80;38.20;;;;;;4788740;30;20060;-90
2023/05/11 13:13:54;;;;;;;7.97;2.13;;;22.80;39.10;;;;;;4789348;30;20055;-91
2023/05/11 13:16:30;;;;;;;4.57;1.65;;;22.80;38.20;;;;;;4788648;30;20098;-91
2023/05/11 13:19:07;;;;;;;4.90;1.83;;;22.60;38.50;;;;;;4789641;30;20154;-91